Time;durP1;ratioP1;P1;durP2;ratioP2;P2;SDS_P1;SDS_P2;PMS_P1;PMS_P2;Temp;Humidity;BMP_temperature;BMP_pressure;BME280_temperature;BME280_humidity;BME280_pressure;Samples;Min_cycle;Max_cycle;Signal;HPM_P1;HPM_P2
2023/01/07 00:01:20;;;;;;;50.00;23.80;;;9.10;99.90;;;;;;5009750;28;20451;-63
2023/01/07 00:03:47;;;;;;;54.65;23.35;;;9.10;99.90;;;;;;5018405;28;20046;-63
2023/01/07 00:06:17;;;;;;;50.78;23.30;;;9.10;99.90;;;;;;5005877;28;20099;-63
2023/01/07 00:08:44;;;;;;;55.33;24.25;;;9.20;99.90;;;;;;5005556;28;20048;-63
2023/01/07 00:11:14;;;;;;;49.80;22.25;;;9.20;99.90;;;;;;5007430;28;20062;-64
2023/01/07 00:13:39;;;;;;;49.00;22.25;;;9.20;99.90;;;;;;5006507;28;20120;-62
2023/01/07 00:16:11;;;;;;;55.00;23.75;;;9.20;99.90;;;;;;5005909;28;20095;-63
2023/01/07 00:18:37;;;;;;;56.03;24.10;;;9.30;99.90;;;;;;5009180;28;20165;-63
2023/01/07 00:21:05;;;;;;;59.70;23.90;;;9.30;99.90;;;;;;5020734;28;20042;-63
2023/01/07 00:23:32;;;;;;;55.38;24.65;;;9.30;99.90;;;;;;5008046;28;20046;-63
2023/01/07 00:26:00;;;;;;;54.42;23.25;;;9.40;99.90;;;;;;5008200;28;20034;-62
2023/01/07 00:28:25;;;;;;;54.03;23.75;;;9.40;99.90;;;;;;5006503;28;20030;-62
2023/01/07 00:30:51;;;;;;;52.78;23.25;;;9.40;99.90;;;;;;5007341;28;20049;-63
2023/01/07 00:33:17;;;;;;;51.00;21.60;;;9.40;99.90;;;;;;5010338;28;20482;-64
2023/01/07 00:35:44;;;;;;;55.70;24.90;;;9.50;99.90;;;;;;5005033;28;21010;-63
2023/01/07 00:38:10;;;;;;;53.08;24.70;;;9.50;99.90;;;;;;5005921;28;20030;-63
2023/01/07 00:40:36;;;;;;;59.13;23.75;;;9.50;99.90;;;;;;5022772;28;20037;-62
2023/01/07 00:43:03;;;;;;;55.13;23.45;;;9.50;99.90;;;;;;5017330;28;20049;-64
2023/01/07 00:45:34;;;;;;;55.05;23.25;;;9.50;99.90;;;;;;5021818;28;20038;-63
2023/01/07 00:48:00;;;;;;;;;;;9.60;99.90;;;;;;5021330;28;20034;-64
2023/01/07 00:50:32;;;;;;;51.72;22.85;;;9.60;99.90;;;;;;5010844;28;19917;-64
2023/01/07 00:52:58;;;;;;;53.70;23.35;;;9.70;99.90;;;;;;5024399;28;20053;-64
2023/01/07 00:55:25;;;;;;;57.78;24.92;;;9.70;99.90;;;;;;5017532;28;20049;-63
2023/01/07 00:57:51;;;;;;;55.15;24.50;;;9.70;99.90;;;;;;5010487;28;20140;-63
2023/01/07 01:00:19;;;;;;;54.30;23.60;;;9.70;99.90;;;;;;5005290;28;20053;-63
2023/01/07 01:02:45;;;;;;;57.30;26.05;;;9.70;99.90;;;;;;5017752;28;20038;-64
2023/01/07 01:05:12;;;;;;;60.72;25.02;;;9.80;99.90;;;;;;5020339;28;20037;-64
2023/01/07 01:07:38;;;;;;;52.78;23.50;;;9.70;99.90;;;;;;5017140;28;20034;-63
2023/01/07 01:10:05;;;;;;;58.00;23.65;;;9.80;99.90;;;;;;5001029;28;20044;-64
2023/01/07 01:12:31;;;;;;;56.15;25.27;;;9.80;99.90;;;;;;5009935;28;20045;-63
2023/01/07 01:14:56;;;;;;;58.70;24.52;;;9.80;99.90;;;;;;5003613;28;20041;-64
2023/01/07 01:17:22;;;;;;;47.95;22.88;;;9.80;99.90;;;;;;5004734;28;20429;-62
2023/01/07 01:19:47;;;;;;;56.85;23.95;;;9.80;99.90;;;;;;5019278;28;20432;-62
2023/01/07 01:22:13;;;;;;;52.08;24.10;;;9.90;99.90;;;;;;5015679;28;20038;-63
2023/01/07 01:24:39;;;;;;;56.65;24.52;;;9.90;99.90;;;;;;5014339;28;20034;-63
2023/01/07 01:27:04;;;;;;;50.28;23.02;;;9.90;99.90;;;;;;5005804;28;20041;-63
2023/01/07 01:29:30;;;;;;;59.97;25.33;;;9.90;99.90;;;;;;5011487;28;20033;-64
2023/01/07 01:31:55;;;;;;;54.92;24.70;;;9.90;99.90;;;;;;5012863;28;20420;-63
2023/01/07 01:34:21;;;;;;;59.95;24.90;;;9.90;99.90;;;;;;5013321;28;20100;-63
2023/01/07 01:36:47;;;;;;;64.70;25.23;;;9.90;99.90;;;;;;5008738;28;20042;-63
2023/01/07 01:39:12;;;;;;;69.80;25.33;;;9.90;99.90;;;;;;5020313;28;20037;-63
2023/01/07 01:41:38;;;;;;;53.47;23.10;;;9.90;99.90;;;;;;5020312;28;20034;-63
2023/01/07 01:44:32;;;;;;;56.88;23.65;;;10.00;99.90;;;;;;5016993;28;20448;-64
2023/01/07 01:46:57;;;;;;;55.22;24.83;;;10.00;99.90;;;;;;5014439;28;20478;-63
2023/01/07 01:49:31;;;;;;;51.72;23.05;;;10.00;99.90;;;;;;5015773;28;20038;-64
2023/01/07 01:52:06;;;;;;;61.30;24.50;;;10.00;99.90;;;;;;5008445;28;20490;-63
2023/01/07 01:54:32;;;;;;;67.38;25.48;;;10.00;99.90;;;;;;5021765;28;20049;-63
2023/01/07 01:57:01;;;;;;;59.78;24.63;;;10.00;99.90;;;;;;5019419;28;20470;-64
2023/01/07 01:59:33;;;;;;;65.03;26.63;;;10.00;99.90;;;;;;5012525;28;20038;-65
2023/01/07 02:01:58;;;;;;;60.92;24.95;;;10.00;99.90;;;;;;5016263;28;20116;-64
2023/01/07 02:04:26;;;;;;;61.20;26.05;;;10.00;99.90;;;;;;5017867;28;20180;-64
2023/01/07 02:07:14;;;;;;;59.53;25.05;;;10.00;99.90;;;;;;5025301;28;20502;-64
2023/01/07 02:09:40;;;;;;;62.95;26.70;;;10.10;99.90;;;;;;5016080;28;20029;-64
2023/01/07 02:12:37;;;;;;;57.70;25.30;;;10.10;99.90;;;;;;5011719;28;20038;-64
2023/01/07 02:15:22;;;;;;;61.28;26.38;;;10.00;99.90;;;;;;5006756;28;20129;-63
2023/01/07 02:18:06;;;;;;;56.70;25.17;;;10.00;99.90;;;;;;5008666;28;20087;-63
2023/01/07 02:20:58;;;;;;;54.17;25.75;;;10.00;99.90;;;;;;5006837;28;20045;-64
2023/01/07 02:23:54;;;;;;;52.17;25.55;;;10.10;99.90;;;;;;5005456;28;20049;-63
2023/01/07 02:26:44;;;;;;;53.08;24.67;;;10.00;99.90;;;;;;5008053;28;20041;-64
2023/01/07 02:29:40;;;;;;;59.55;26.13;;;10.00;99.90;;;;;;5006213;28;20080;-65
2023/01/07 02:32:22;;;;;;;52.75;25.02;;;10.10;99.90;;;;;;5003722;28;20051;-64
2023/01/07 02:34:51;;;;;;;57.17;25.40;;;10.00;99.90;;;;;;5003831;28;20355;-64
2023/01/07 02:37:48;;;;;;;53.67;25.20;;;10.10;99.90;;;;;;5003513;28;20034;-63
2023/01/07 02:40:48;;;;;;;47.90;23.17;;;10.00;99.90;;;;;;5004612;28;20159;-64
2023/01/07 02:43:36;;;;;;;55.13;25.88;;;10.10;99.90;;;;;;5011230;28;20042;-63
2023/01/07 02:46:13;;;;;;;54.70;25.75;;;10.10;99.90;;;;;;5012435;28;20037;-64
2023/01/07 02:48:40;;;;;;;51.22;24.25;;;10.00;99.90;;;;;;5012200;28;20050;-63
2023/01/07 02:51:06;;;;;;;49.40;23.98;;;10.10;99.90;;;;;;5024127;28;20394;-64
2023/01/07 02:53:32;;;;;;;51.67;24.02;;;10.10;99.90;;;;;;5023482;28;20045;-63
2023/01/07 02:56:04;;;;;;;47.30;24.67;;;10.00;99.90;;;;;;5015222;28;20060;-64
2023/01/07 02:58:56;;;;;;;56.72;26.73;;;10.00;99.90;;;;;;5019066;28;20069;-64
2023/01/07 03:01:41;;;;;;;54.15;24.17;;;10.00;99.90;;;;;;5018590;28;20053;-64
2023/01/07 03:04:18;;;;;;;51.67;24.83;;;10.00;99.90;;;;;;5011718;28;20084;-63
2023/01/07 03:07:05;;;;;;;54.95;25.77;;;10.00;99.90;;;;;;5022671;28;20050;-62
2023/01/07 03:09:49;;;;;;;54.10;25.85;;;10.00;99.90;;;;;;5008684;28;20037;-63
2023/01/07 03:12:41;;;;;;;45.58;24.73;;;10.00;99.90;;;;;;5012181;28;20437;-63
2023/01/07 03:15:14;;;;;;;61.58;26.23;;;10.00;99.90;;;;;;5017535;28;20462;-63
2023/01/07 03:17:45;;;;;;;45.60;22.80;;;10.00;99.90;;;;;;5017134;28;20121;-63
2023/01/07 03:20:13;;;;;;;45.42;23.48;;;10.00;99.90;;;;;;5018644;28;20082;-63
2023/01/07 03:22:41;;;;;;;45.30;23.10;;;10.00;99.90;;;;;;5016437;28;20049;-63
2023/01/07 03:25:08;;;;;;;45.83;23.52;;;10.00;99.90;;;;;;5007018;28;20034;-63
2023/01/07 03:27:35;;;;;;;44.50;24.42;;;10.00;99.90;;;;;;5013042;28;20124;-63
2023/01/07 03:30:08;;;;;;;50.60;23.13;;;10.00;99.90;;;;;;5017792;28;20046;-63
2023/01/07 03:32:41;;;;;;;42.17;22.70;;;10.00;99.90;;;;;;5017188;28;20120;-63
2023/01/07 03:35:07;;;;;;;47.85;23.95;;;10.00;99.90;;;;;;5019595;28;20536;-63
2023/01/07 03:37:33;;;;;;;45.85;23.52;;;10.00;99.90;;;;;;5011137;28;20094;-63
2023/01/07 03:40:01;;;;;;;45.33;22.65;;;10.00;99.90;;;;;;5017084;28;20458;-63
2023/01/07 03:42:39;;;;;;;44.00;23.02;;;10.00;99.90;;;;;;5010444;28;20049;-63
2023/01/07 03:45:11;;;;;;;44.25;22.95;;;10.00;99.90;;;;;;5023325;28;20401;-64
2023/01/07 03:47:39;;;;;;;42.35;22.85;;;9.90;99.90;;;;;;5020955;28;20132;-64
2023/01/07 03:50:05;;;;;;;42.40;22.77;;;9.90;99.90;;;;;;5022469;28;20144;-63
2023/01/07 03:52:30;;;;;;;39.50;20.88;;;9.90;99.90;;;;;;5016437;28;20119;-63
2023/01/07 03:54:56;;;;;;;41.08;21.52;;;9.90;99.90;;;;;;5015539;28;20034;-63
2023/01/07 03:57:21;;;;;;;35.20;20.98;;;9.90;99.90;;;;;;5017556;28;20409;-62
2023/01/07 03:59:47;;;;;;;39.97;21.30;;;9.90;99.90;;;;;;5019738;28;20041;-62
2023/01/07 04:02:12;;;;;;;38.95;21.27;;;9.90;99.90;;;;;;5012694;28;20489;-63
2023/01/07 04:04:38;;;;;;;38.20;20.77;;;9.90;99.90;;;;;;5022185;28;20573;-66
2023/01/07 04:07:03;;;;;;;36.05;19.55;;;9.90;99.90;;;;;;5020790;28;20498;-63
2023/01/07 04:09:29;;;;;;;41.88;21.80;;;9.80;99.90;;;;;;5016494;28;20378;-64
2023/01/07 04:11:55;;;;;;;34.75;18.85;;;9.80;99.90;;;;;;5023900;28;20440;-63
2023/01/07 04:14:20;;;;;;;32.92;19.90;;;9.80;99.90;;;;;;5022761;28;20045;-63
2023/01/07 04:16:46;;;;;;;37.28;20.10;;;9.80;99.90;;;;;;5019503;28;20038;-63
2023/01/07 04:19:11;;;;;;;36.97;20.35;;;9.70;99.90;;;;;;5016867;28;20054;-65
2023/01/07 04:21:37;;;;;;;35.28;19.05;;;9.80;99.90;;;;;;5025125;28;20611;-62
2023/01/07 04:24:03;;;;;;;34.28;19.30;;;9.80;99.90;;;;;;5017798;28;20046;-63
2023/01/07 04:26:28;;;;;;;34.42;19.20;;;9.70;99.90;;;;;;5018050;28;20482;-63
2023/01/07 04:28:54;;;;;;;33.63;19.95;;;9.70;99.90;;;;;;5017317;28;20107;-63
2023/01/07 04:31:19;;;;;;;32.90;19.42;;;9.80;99.90;;;;;;5017513;28;20038;-62
2023/01/07 04:33:45;;;;;;;31.88;18.92;;;9.70;99.90;;;;;;5012373;28;20038;-63
2023/01/07 04:36:12;;;;;;;38.03;20.05;;;9.70;99.90;;;;;;5017919;28;20106;-64
2023/01/07 04:38:38;;;;;;;34.08;19.27;;;9.70;99.90;;;;;;5008966;28;20046;-62
2023/01/07 04:41:03;;;;;;;33.05;18.50;;;9.70;99.90;;;;;;5019399;28;20045;-62
2023/01/07 04:43:29;;;;;;;30.90;18.50;;;9.70;99.90;;;;;;5015925;28;20049;-62
2023/01/07 04:45:54;;;;;;;33.35;18.23;;;9.70;99.90;;;;;;5015472;28;20448;-63
2023/01/07 04:48:20;;;;;;;30.92;18.58;;;9.70;99.90;;;;;;5019142;28;20030;-63
2023/01/07 04:50:47;;;;;;;30.98;17.92;;;9.70;99.90;;;;;;5015545;28;20041;-63
2023/01/07 04:53:13;;;;;;;31.88;17.85;;;9.70;99.90;;;;;;5022671;28;20037;-62
2023/01/07 04:55:39;;;;;;;33.45;17.98;;;9.70;99.90;;;;;;5017233;28;20065;-63
2023/01/07 04:58:04;;;;;;;29.60;17.48;;;9.70;99.90;;;;;;5017677;28;20041;-63
2023/01/07 05:00:30;;;;;;;30.42;17.77;;;9.70;99.90;;;;;;5010114;28;20134;-63
2023/01/07 05:02:55;;;;;;;30.90;17.83;;;9.70;99.90;;;;;;5019905;28;20041;-62
2023/01/07 05:05:21;;;;;;;30.80;18.13;;;9.60;99.90;;;;;;5017054;28;20036;-62
2023/01/07 05:07:46;;;;;;;27.85;16.80;;;9.70;99.90;;;;;;5015698;28;20530;-62
2023/01/07 05:10:12;;;;;;;31.20;17.05;;;9.70;99.90;;;;;;5018659;28;20034;-62
2023/01/07 05:12:37;;;;;;;27.42;16.45;;;9.70;99.90;;;;;;5021723;28;20030;-62
2023/01/07 05:15:05;;;;;;;31.08;16.42;;;9.70;99.90;;;;;;5018350;28;20044;-63
2023/01/07 05:17:30;;;;;;;26.42;16.73;;;9.60;99.90;;;;;;5019274;28;20030;-63
2023/01/07 05:19:56;;;;;;;28.63;15.73;;;9.70;99.90;;;;;;5016601;28;20041;-62
2023/01/07 05:22:22;;;;;;;25.23;15.82;;;9.70;99.90;;;;;;5008823;28;20120;-63
2023/01/07 05:24:48;;;;;;;27.02;16.55;;;9.70;99.90;;;;;;5008555;28;20228;-63
2023/01/07 05:27:13;;;;;;;28.80;16.38;;;9.60;99.90;;;;;;5013210;28;20136;-63
2023/01/07 05:29:39;;;;;;;27.88;16.25;;;9.60;99.90;;;;;;5007228;28;20045;-63
2023/01/07 05:32:05;;;;;;;30.98;16.27;;;9.60;99.90;;;;;;5006162;28;20037;-63
2023/01/07 05:34:30;;;;;;;28.65;15.05;;;9.60;99.90;;;;;;5007204;28;20404;-62
2023/01/07 05:36:56;;;;;;;26.20;15.68;;;9.60;99.90;;;;;;5004604;28;20677;-63
2023/01/07 05:39:22;;;;;;;25.58;15.27;;;9.60;99.90;;;;;;5003606;28;20124;-63
2023/01/07 05:41:47;;;;;;;31.17;15.52;;;9.60;99.90;;;;;;5010137;28;20069;-63
2023/01/07 05:44:13;;;;;;;27.67;15.43;;;9.60;99.90;;;;;;5006669;28;20041;-63
2023/01/07 05:46:39;;;;;;;23.20;14.45;;;9.60;99.90;;;;;;5007073;28;20437;-63
2023/01/07 05:49:05;;;;;;;23.05;14.32;;;9.60;99.90;;;;;;5013487;28;20037;-63
2023/01/07 05:51:30;;;;;;;24.92;14.85;;;9.60;99.90;;;;;;5012351;28;20478;-63
2023/01/07 05:53:56;;;;;;;24.20;14.00;;;9.60;99.90;;;;;;5024066;28;20048;-62
2023/01/07 05:56:22;;;;;;;27.17;13.65;;;9.70;99.90;;;;;;5022372;28;20172;-63
2023/01/07 05:58:47;;;;;;;22.90;13.13;;;9.70;99.90;;;;;;5017217;28;20053;-63
2023/01/07 06:01:13;;;;;;;24.05;14.30;;;9.70;99.90;;;;;;5028379;28;20038;-62
2023/01/07 06:03:39;;;;;;;24.42;14.45;;;9.60;99.90;;;;;;5015707;28;20165;-63
2023/01/07 06:06:08;;;;;;;24.83;14.30;;;9.60;99.90;;;;;;5022042;28;20037;-63
2023/01/07 06:08:38;;;;;;;20.45;13.52;;;9.60;99.90;;;;;;5020166;28;20029;-62
2023/01/07 06:11:05;;;;;;;23.30;13.20;;;9.60;99.90;;;;;;5019761;28;20128;-63
2023/01/07 06:13:31;;;;;;;20.20;12.52;;;9.60;99.90;;;;;;5010408;28;20128;-63
2023/01/07 06:16:01;;;;;;;22.42;13.65;;;9.60;99.90;;;;;;5016911;28;20091;-62
2023/01/07 06:18:27;;;;;;;20.25;12.55;;;9.60;99.90;;;;;;5027458;28;20049;-63
2023/01/07 06:20:52;;;;;;;20.42;13.05;;;9.60;99.90;;;;;;5011173;28;20038;-62
2023/01/07 06:23:18;;;;;;;24.35;12.10;;;9.60;99.90;;;;;;5007225;28;20091;-61
2023/01/07 06:25:43;;;;;;;19.25;12.27;;;9.60;99.90;;;;;;5010595;28;20044;-61
2023/01/07 06:28:09;;;;;;;18.25;11.68;;;9.60;99.90;;;;;;5003861;28;20109;-62
2023/01/07 06:30:34;;;;;;;17.77;11.45;;;9.60;99.90;;;;;;5006332;28;20071;-61
2023/01/07 06:33:00;;;;;;;20.75;12.38;;;9.60;99.90;;;;;;5006750;28;20485;-62
2023/01/07 06:35:26;;;;;;;21.52;11.43;;;9.60;99.90;;;;;;5005234;28;20069;-61
2023/01/07 06:37:51;;;;;;;18.77;11.73;;;9.60;99.90;;;;;;5006029;28;20046;-61
2023/01/07 06:40:17;;;;;;;17.90;10.90;;;9.60;99.90;;;;;;5003925;28;20034;-61
2023/01/07 06:42:43;;;;;;;20.40;11.27;;;9.60;99.90;;;;;;5012906;28;20116;-62
2023/01/07 06:45:09;;;;;;;19.98;11.38;;;9.60;99.90;;;;;;5007853;28;20498;-60
2023/01/07 06:47:34;;;;;;;25.73;11.30;;;9.60;99.90;;;;;;5004090;28;20034;-61
2023/01/07 06:50:00;;;;;;;14.98;10.48;;;9.60;99.90;;;;;;5011017;28;20385;-62
2023/01/07 06:52:26;;;;;;;17.77;10.13;;;9.60;99.90;;;;;;5015333;28;20073;-61
2023/01/07 06:54:51;;;;;;;15.15;10.55;;;9.60;99.90;;;;;;5021038;28;20132;-61
2023/01/07 06:57:17;;;;;;;17.83;10.85;;;9.60;99.90;;;;;;5025110;28;20092;-62
2023/01/07 06:59:42;;;;;;;12.98;9.07;;;9.60;99.90;;;;;;5020979;28;20072;-61
2023/01/07 07:02:17;;;;;;;16.90;9.35;;;9.60;99.90;;;;;;5012154;28;20041;-61
2023/01/07 07:04:43;;;;;;;15.57;10.00;;;9.60;99.90;;;;;;5019768;28;20066;-60
2023/01/07 07:07:09;;;;;;;13.75;9.13;;;9.60;99.90;;;;;;5023451;28;20127;-61
2023/01/07 07:09:34;;;;;;;17.27;9.40;;;9.60;99.90;;;;;;5012010;28;20087;-61
2023/01/07 07:12:00;;;;;;;13.02;9.18;;;9.60;99.90;;;;;;5019734;28;20038;-61
2023/01/07 07:14:25;;;;;;;11.77;8.35;;;9.60;99.90;;;;;;5022226;28;20045;-61
2023/01/07 07:16:51;;;;;;;14.40;8.98;;;9.60;99.90;;;;;;5022033;28;20038;-62
2023/01/07 07:19:17;;;;;;;12.13;8.10;;;9.60;99.90;;;;;;5025786;28;20060;-61
2023/01/07 07:21:42;;;;;;;14.88;8.95;;;9.60;99.90;;;;;;5017069;28;20769;-62
2023/01/07 07:24:09;;;;;;;13.13;8.27;;;9.60;99.90;;;;;;5021567;28;20103;-61
2023/01/07 07:26:34;;;;;;;12.27;7.38;;;9.60;99.90;;;;;;5011744;28;20136;-60
2023/01/07 07:29:00;;;;;;;16.92;8.85;;;9.60;99.90;;;;;;5013411;28;20040;-61
2023/01/07 07:31:25;;;;;;;15.07;8.50;;;9.60;99.90;;;;;;5014975;28;20172;-60
2023/01/07 07:33:51;;;;;;;13.55;8.48;;;9.60;99.90;;;;;;5019733;28;20095;-62
2023/01/07 07:36:16;;;;;;;12.25;8.05;;;9.60;99.90;;;;;;5016649;28;20046;-61
2023/01/07 07:38:42;;;;;;;11.05;7.38;;;9.60;99.90;;;;;;5024698;28;20052;-61
2023/01/07 07:41:08;;;;;;;12.95;7.00;;;9.60;99.90;;;;;;5012361;28;20041;-61
2023/01/07 07:43:36;;;;;;;12.23;7.50;;;9.60;99.90;;;;;;5020256;28;20056;-61
2023/01/07 07:46:03;;;;;;;12.07;7.25;;;9.60;99.90;;;;;;5016983;28;20378;-61
2023/01/07 07:48:28;;;;;;;9.55;6.85;;;9.60;99.90;;;;;;5017272;28;20494;-61
2023/01/07 07:50:54;;;;;;;10.63;7.00;;;9.50;99.90;;;;;;5020452;28;20029;-61
2023/01/07 07:53:19;;;;;;;14.50;8.13;;;9.60;99.90;;;;;;5022801;28;20044;-62
2023/01/07 07:55:45;;;;;;;11.52;7.15;;;9.50;99.90;;;;;;5026191;28;20048;-61
2023/01/07 07:58:12;;;;;;;10.48;7.43;;;9.40;99.90;;;;;;5024960;28;20389;-61
2023/01/07 08:00:37;;;;;;;10.75;7.45;;;9.50;99.90;;;;;;5025300;28;20042;-62
2023/01/07 08:03:03;;;;;;;10.93;7.60;;;9.40;99.90;;;;;;5035115;28;20064;-61
2023/01/07 08:05:29;;;;;;;11.65;7.20;;;9.40;99.90;;;;;;5027682;28;20116;-61
2023/01/07 08:07:55;;;;;;;10.15;6.55;;;9.50;99.90;;;;;;5024611;28;20113;-61
2023/01/07 08:10:22;;;;;;;8.40;6.50;;;9.50;99.90;;;;;;5026613;28;20033;-60
2023/01/07 08:12:49;;;;;;;10.95;6.88;;;9.40;99.90;;;;;;5026157;28;20038;-61
2023/01/07 08:15:14;;;;;;;9.30;6.38;;;9.40;99.90;;;;;;5027082;28;20053;-61
2023/01/07 08:17:40;;;;;;;10.63;6.82;;;9.40;99.90;;;;;;5029678;28;20401;-62
2023/01/07 08:20:07;;;;;;;9.70;7.43;;;9.40;99.90;;;;;;5031170;28;20381;-61
2023/01/07 08:22:33;;;;;;;8.50;6.72;;;9.40;99.90;;;;;;5028124;28;20452;-61
2023/01/07 08:24:58;;;;;;;11.13;6.78;;;9.40;99.90;;;;;;5029205;28;20081;-60
2023/01/07 08:27:26;;;;;;;10.38;6.72;;;9.40;99.90;;;;;;5030040;28;20112;-60
2023/01/07 08:29:53;;;;;;;11.93;7.00;;;9.40;99.90;;;;;;5029814;28;20034;-61
2023/01/07 08:32:19;;;;;;;9.30;7.28;;;9.50;99.90;;;;;;5011698;28;20087;-61
2023/01/07 08:34:45;;;;;;;11.60;6.70;;;9.50;99.90;;;;;;5024796;28;20052;-61
2023/01/07 08:37:10;;;;;;;14.35;7.10;;;9.50;99.90;;;;;;5028010;28;20041;-62
2023/01/07 08:39:36;;;;;;;8.57;6.72;;;9.50;99.90;;;;;;5032565;28;20035;-60
2023/01/07 08:42:02;;;;;;;9.75;6.78;;;9.50;99.90;;;;;;5031442;28;20100;-62
2023/01/07 08:44:28;;;;;;;10.52;6.50;;;9.40;99.90;;;;;;5029948;28;20120;-62
2023/01/07 08:46:53;;;;;;;11.52;6.65;;;9.40;99.90;;;;;;5030797;28;20131;-60
2023/01/07 08:49:19;;;;;;;9.43;6.30;;;9.30;99.90;;;;;;5026770;28;20041;-61
2023/01/07 08:51:44;;;;;;;9.77;6.38;;;9.30;99.90;;;;;;5044400;28;20033;-60
2023/01/07 08:54:10;;;;;;;9.90;5.90;;;9.20;99.90;;;;;;5026362;28;20107;-62
2023/01/07 08:56:36;;;;;;;10.65;6.55;;;9.20;99.90;;;;;;5026490;28;20063;-62
2023/01/07 08:59:01;;;;;;;9.45;6.07;;;9.20;99.90;;;;;;5024832;28;20544;-63
2023/01/07 09:01:27;;;;;;;8.85;5.63;;;9.20;99.90;;;;;;5028686;28;20515;-60
2023/01/07 09:03:52;;;;;;;10.43;5.82;;;9.20;99.90;;;;;;5029064;28;20041;-61
2023/01/07 09:06:18;;;;;;;7.85;5.75;;;9.20;99.90;;;;;;5026290;28;20037;-61
2023/01/07 09:08:44;;;;;;;9.10;6.03;;;9.20;99.90;;;;;;5030034;28;20068;-61
2023/01/07 09:11:11;;;;;;;9.50;5.38;;;9.20;99.90;;;;;;5030466;28;20052;-60
2023/01/07 09:13:36;;;;;;;10.10;5.72;;;9.30;99.90;;;;;;5026737;28;20499;-61
2023/01/07 09:16:02;;;;;;;8.43;5.43;;;9.20;99.90;;;;;;5027561;28;20034;-61
2023/01/07 09:18:27;;;;;;;7.10;4.97;;;9.30;99.90;;;;;;5027409;28;20072;-62
2023/01/07 09:20:53;;;;;;;6.53;4.82;;;9.20;99.90;;;;;;5027491;28;20041;-60
2023/01/07 09:23:20;;;;;;;7.80;4.72;;;9.30;99.90;;;;;;5031447;28;20049;-62
2023/01/07 09:25:45;;;;;;;7.22;5.00;;;9.30;99.90;;;;;;5030339;28;20033;-61
2023/01/07 09:28:11;;;;;;;7.78;4.95;;;9.30;99.90;;;;;;5026115;28;20432;-61
2023/01/07 09:30:36;;;;;;;7.70;4.43;;;9.20;99.90;;;;;;5025892;28;20466;-61
2023/01/07 09:33:03;;;;;;;9.07;4.72;;;9.30;99.90;;;;;;5029923;28;20056;-60
2023/01/07 09:35:28;;;;;;;6.28;4.78;;;9.30;99.90;;;;;;5037268;28;20214;-61
2023/01/07 09:37:54;;;;;;;10.73;4.82;;;9.30;99.90;;;;;;5026683;28;20099;-61
2023/01/07 09:40:26;;;;;;;7.35;4.57;;;9.30;99.90;;;;;;5032655;28;20056;-60
2023/01/07 09:43:03;;;;;;;6.65;4.28;;;9.20;99.90;;;;;;5029424;28;20672;-61
2023/01/07 09:45:37;;;;;;;7.55;3.97;;;9.30;99.90;;;;;;5025056;28;20461;-61
2023/01/07 09:48:13;;;;;;;7.05;4.07;;;9.20;99.90;;;;;;5031234;28;20034;-61
2023/01/07 09:50:56;;;;;;;6.30;4.05;;;9.30;99.90;;;;;;5025717;28;20116;-61
2023/01/07 09:53:27;;;;;;;5.57;4.30;;;9.40;99.90;;;;;;5033393;28;20032;-61
2023/01/07 09:55:54;;;;;;;5.65;4.00;;;9.30;99.90;;;;;;5033919;28;20053;-61
2023/01/07 09:58:20;;;;;;;5.57;3.50;;;9.40;99.90;;;;;;5027770;28;20041;-60
2023/01/07 10:01:26;;;;;;;9.52;3.92;;;9.40;99.90;;;;;;5028350;28;20038;-61
2023/01/07 10:03:57;;;;;;;6.90;3.63;;;9.40;99.90;;;;;;5005292;28;20056;-61
2023/01/07 10:06:52;;;;;;;4.72;3.30;;;9.40;99.90;;;;;;5027463;28;20521;-61
2023/01/07 10:09:30;;;;;;;5.90;3.35;;;9.50;99.90;;;;;;5038232;28;20131;-61
2023/01/07 10:12:21;;;;;;;3.78;3.03;;;9.50;99.90;;;;;;5027298;28;20045;-61
2023/01/07 10:15:05;;;;;;;4.45;3.17;;;9.40;99.90;;;;;;5028064;28;20044;-61
2023/01/07 10:18:07;;;;;;;3.63;3.20;;;9.60;99.90;;;;;;5028183;28;20033;-61
2023/01/07 10:20:48;;;;;;;4.50;3.20;;;9.60;99.90;;;;;;5027868;28;20034;-61
2023/01/07 10:23:29;;;;;;;5.47;3.00;;;9.50;99.90;;;;;;5025354;28;20387;-61
2023/01/07 10:25:56;;;;;;;3.95;3.10;;;9.60;99.90;;;;;;5032735;28;20065;-61
2023/01/07 10:28:27;;;;;;;5.10;3.25;;;9.60;99.90;;;;;;5030673;28;20033;-61
2023/01/07 10:30:52;;;;;;;5.78;3.13;;;9.70;99.90;;;;;;5027855;28;20374;-60
2023/01/07 10:33:24;;;;;;;4.28;2.72;;;9.70;99.90;;;;;;5025458;28;20049;-61
2023/01/07 10:36:17;;;;;;;2.88;2.55;;;9.80;99.90;;;;;;5024354;28;20072;-62
2023/01/07 10:38:50;;;;;;;5.68;2.85;;;9.80;99.90;;;;;;5022445;28;20040;-62
2023/01/07 10:41:27;;;;;;;4.35;2.97;;;9.80;99.90;;;;;;5022149;28;20041;-60
2023/01/07 10:44:30;;;;;;;3.97;2.50;;;9.80;99.90;;;;;;5026401;28;20057;-61
2023/01/07 10:47:21;;;;;;;3.58;2.40;;;9.90;99.90;;;;;;5017096;28;20486;-61
2023/01/07 10:50:05;;;;;;;3.92;2.13;;;10.00;99.90;;;;;;5019752;28;20037;-61
2023/01/07 10:52:43;;;;;;;5.35;2.53;;;10.10;99.90;;;;;;5027392;28;20072;-62
2023/01/07 10:55:17;;;;;;;2.63;2.22;;;10.00;99.90;;;;;;5024475;28;20057;-61
2023/01/07 10:57:43;;;;;;;3.95;2.28;;;10.10;99.90;;;;;;5035116;28;20128;-61
2023/01/07 11:00:13;;;;;;;3.10;2.28;;;10.10;99.90;;;;;;5024971;28;20080;-61
2023/01/07 11:02:53;;;;;;;3.33;2.20;;;10.20;99.90;;;;;;5030312;28;20087;-62
2023/01/07 11:05:20;;;;;;;2.38;2.17;;;10.20;99.90;;;;;;5030383;28;20033;-61
2023/01/07 11:07:54;;;;;;;3.88;2.05;;;10.30;99.90;;;;;;5029659;28;20043;-62
2023/01/07 11:10:23;;;;;;;5.25;1.67;;;10.30;99.90;;;;;;5028673;28;20047;-61
2023/01/07 11:13:01;;;;;;;4.10;2.20;;;10.40;99.90;;;;;;5023128;28;20148;-62
2023/01/07 11:15:35;;;;;;;2.92;1.80;;;10.40;99.90;;;;;;5023384;28;20042;-62
2023/01/07 11:18:13;;;;;;;4.53;1.80;;;10.50;99.90;;;;;;5027943;28;20124;-63
2023/01/07 11:20:58;;;;;;;4.00;2.08;;;10.60;99.90;;;;;;5028621;28;20034;-62
2023/01/07 11:23:26;;;;;;;3.40;1.92;;;10.50;99.90;;;;;;5024282;28;20117;-60
2023/01/07 11:25:53;;;;;;;1.95;1.70;;;10.60;99.90;;;;;;5025269;28;20383;-62
2023/01/07 11:28:25;;;;;;;2.85;1.80;;;10.60;99.90;;;;;;5025584;28;20046;-60
2023/01/07 11:30:58;;;;;;;2.72;1.70;;;10.60;99.90;;;;;;5030795;28;20386;-63
2023/01/07 11:33:38;;;;;;;5.05;2.00;;;10.60;99.90;;;;;;5026277;28;20041;-61
2023/01/07 11:36:06;;;;;;;3.90;2.10;;;10.60;99.90;;;;;;5027639;28;20044;-60
2023/01/07 11:38:36;;;;;;;3.40;2.13;;;10.60;99.90;;;;;;5026767;28;20048;-62
2023/01/07 11:41:05;;;;;;;4.53;2.85;;;10.60;99.90;;;;;;5027408;28;20449;-61
2023/01/07 11:43:46;;;;;;;2.75;2.13;;;10.60;99.90;;;;;;5022229;28;20053;-62
2023/01/07 11:46:13;;;;;;;3.70;2.08;;;10.60;99.90;;;;;;5024525;28;20076;-61
2023/01/07 11:48:48;;;;;;;5.07;2.42;;;10.60;99.90;;;;;;5026065;28;20129;-62
2023/01/07 11:51:15;;;;;;;3.03;2.00;;;10.60;99.90;;;;;;5022875;28;20160;-62
2023/01/07 11:53:52;;;;;;;2.78;1.98;;;10.60;99.90;;;;;;5006164;28;20079;-61
2023/01/07 11:56:31;;;;;;;2.58;1.92;;;10.60;99.90;;;;;;5024317;28;20053;-61
2023/01/07 11:59:18;;;;;;;4.47;1.90;;;10.60;99.90;;;;;;5028375;28;20120;-61
2023/01/07 12:01:52;;;;;;;2.20;1.90;;;10.60;99.90;;;;;;5028670;28;20062;-63
2023/01/07 12:04:44;;;;;;;3.05;1.88;;;10.70;99.90;;;;;;5022064;28;20053;-61
2023/01/07 12:07:15;;;;;;;3.80;1.63;;;10.70;99.90;;;;;;5014326;28;20060;-62
2023/01/07 12:09:43;;;;;;;3.25;1.95;;;10.70;99.90;;;;;;5023425;28;20045;-62
2023/01/07 12:12:33;;;;;;;2.83;1.67;;;10.70;99.90;;;;;;5022329;28;20310;-61
2023/01/07 12:15:01;;;;;;;4.20;1.75;;;10.80;99.90;;;;;;5020897;28;20045;-62
2023/01/07 12:17:30;;;;;;;3.17;1.60;;;10.80;99.90;;;;;;5033526;28;20045;-62
2023/01/07 12:20:14;;;;;;;3.80;1.65;;;10.90;99.90;;;;;;5026546;28;20578;-62
2023/01/07 12:22:58;;;;;;;2.58;1.73;;;10.80;99.90;;;;;;5011772;28;20061;-62
2023/01/07 12:26:03;;;;;;;3.45;1.77;;;10.90;99.90;;;;;;5018105;28;20033;-61
2023/01/07 12:28:37;;;;;;;2.45;1.70;;;10.90;99.90;;;;;;5020684;28;20164;-61
2023/01/07 12:31:21;;;;;;;4.20;1.60;;;10.80;99.90;;;;;;5029172;28;20098;-62
2023/01/07 12:34:01;;;;;;;2.70;1.67;;;10.80;99.90;;;;;;5023104;28;20053;-62
2023/01/07 12:36:35;;;;;;;3.13;1.75;;;10.90;99.90;;;;;;5011277;28;20057;-61
2023/01/07 12:39:07;;;;;;;2.00;1.63;;;10.90;99.90;;;;;;5030359;28;20417;-61
2023/01/07 12:41:38;;;;;;;2.55;1.70;;;10.90;99.90;;;;;;5026809;28;20048;-62
2023/01/07 12:44:24;;;;;;;2.88;1.63;;;10.80;99.90;;;;;;5022733;28;20041;-62
2023/01/07 12:47:35;;;;;;;3.58;1.67;;;10.80;99.90;;;;;;5021643;28;20052;-61
2023/01/07 12:50:29;;;;;;;1.98;1.33;;;10.70;99.90;;;;;;5021729;28;20390;-62
2023/01/07 12:53:09;;;;;;;3.45;1.60;;;10.60;99.90;;;;;;5020557;28;20057;-62
2023/01/07 12:55:39;;;;;;;1.95;1.30;;;10.70;99.90;;;;;;5015403;28;20052;-62
2023/01/07 12:58:27;;;;;;;1.48;1.35;;;10.60;99.90;;;;;;5042993;28;20515;-61